sensor_id;sensor_type;location;lat;lon;timestamp;P1;durP1;ratioP1;P2;durP2;ratioP2
55423;SDS011;41294;42.666;23.350;2023-06-22T00:02:13;11.65;;;10.02;;
55423;SDS011;41294;42.666;23.350;2023-06-22T00:04:38;12.32;;;11.02;;
55423;SDS011;41294;42.666;23.350;2023-06-22T00:07:04;11.55;;;10.35;;
55423;SDS011;41294;42.666;23.350;2023-06-22T00:09:30;12.13;;;11.02;;
55423;SDS011;41294;42.666;23.350;2023-06-22T00:11:56;11.73;;;10.63;;
55423;SDS011;41294;42.666;23.350;2023-06-22T00:14:21;11.77;;;10.75;;
55423;SDS011;41294;42.666;23.350;2023-06-22T00:16:47;15.25;;;10.77;;
55423;SDS011;41294;42.666;23.350;2023-06-22T00:19:14;11.63;;;10.43;;
55423;SDS011;41294;42.666;23.350;2023-06-22T00:21:44;12.55;;;10.63;;
55423;SDS011;41294;42.666;23.350;2023-06-22T00:24:12;11.38;;;10.18;;
55423;SDS011;41294;42.666;23.350;2023-06-22T00:26:37;11.30;;;10.00;;
55423;SDS011;41294;42.666;23.350;2023-06-22T00:29:02;12.23;;;10.88;;
55423;SDS011;41294;42.666;23.350;2023-06-22T00:31:28;11.63;;;10.50;;
55423;SDS011;41294;42.666;23.350;2023-06-22T00:33:53;11.55;;;10.38;;
55423;SDS011;41294;42.666;23.350;2023-06-22T00:36:19;12.05;;;10.57;;
55423;SDS011;41294;42.666;23.350;2023-06-22T00:38:44;12.50;;;11.38;;
55423;SDS011;41294;42.666;23.350;2023-06-22T00:41:09;14.57;;;13.18;;
55423;SDS011;41294;42.666;23.350;2023-06-22T00:43:35;13.20;;;12.00;;
55423;SDS011;41294;42.666;23.350;2023-06-22T00:46:00;12.77;;;11.27;;
55423;SDS011;41294;42.666;23.350;2023-06-22T00:48:26;12.15;;;10.90;;
55423;SDS011;41294;42.666;23.350;2023-06-22T00:50:52;11.35;;;10.25;;
55423;SDS011;41294;42.666;23.350;2023-06-22T00:53:18;15.75;;;14.15;;
55423;SDS011;41294;42.666;23.350;2023-06-22T00:55:44;12.98;;;11.77;;
55423;SDS011;41294;42.666;23.350;2023-06-22T00:58:12;12.57;;;11.32;;
55423;SDS011;41294;42.666;23.350;2023-06-22T01:00:38;11.90;;;10.73;;
55423;SDS011;41294;42.666;23.350;2023-06-22T01:03:05;12.75;;;11.45;;
55423;SDS011;41294;42.666;23.350;2023-06-22T01:05:33;11.98;;;10.80;;
55423;SDS011;41294;42.666;23.350;2023-06-22T01:10:28;12.65;;;11.35;;
55423;SDS011;41294;42.666;23.350;2023-06-22T01:13:02;13.05;;;11.55;;
55423;SDS011;41294;42.666;23.350;2023-06-22T01:15:36;12.45;;;11.18;;
55423;SDS011;41294;42.666;23.350;2023-06-22T01:18:05;12.73;;;11.45;;
55423;SDS011;41294;42.666;23.350;2023-06-22T01:20:32;12.55;;;11.35;;
55423;SDS011;41294;42.666;23.350;2023-06-22T01:23:09;12.65;;;11.07;;
55423;SDS011;41294;42.666;23.350;2023-06-22T01:31:13;13.27;;;11.93;;
55423;SDS011;41294;42.666;23.350;2023-06-22T01:33:43;12.35;;;11.15;;
55423;SDS011;41294;42.666;23.350;2023-06-22T01:36:10;12.02;;;10.95;;
55423;SDS011;41294;42.666;23.350;2023-06-22T01:38:37;12.00;;;10.80;;
55423;SDS011;41294;42.666;23.350;2023-06-22T01:41:03;12.27;;;10.68;;
55423;SDS011;41294;42.666;23.350;2023-06-22T01:43:29;14.20;;;11.55;;
55423;SDS011;41294;42.666;23.350;2023-06-22T01:45:55;12.85;;;11.18;;
55423;SDS011;41294;42.666;23.350;2023-06-22T01:48:22;13.95;;;11.55;;
55423;SDS011;41294;42.666;23.350;2023-06-22T01:50:48;12.25;;;11.02;;
55423;SDS011;41294;42.666;23.350;2023-06-22T01:53:14;11.63;;;10.52;;
55423;SDS011;41294;42.666;23.350;2023-06-22T01:55:39;11.77;;;10.68;;
55423;SDS011;41294;42.666;23.350;2023-06-22T01:58:05;11.23;;;10.20;;
55423;SDS011;41294;42.666;23.350;2023-06-22T02:00:31;12.18;;;11.00;;
55423;SDS011;41294;42.666;23.350;2023-06-22T02:03:01;12.77;;;11.48;;
55423;SDS011;41294;42.666;23.350;2023-06-22T02:05:37;12.00;;;10.88;;
55423;SDS011;41294;42.666;23.350;2023-06-22T02:08:08;10.85;;;9.68;;
55423;SDS011;41294;42.666;23.350;2023-06-22T02:10:37;12.25;;;11.05;;
55423;SDS011;41294;42.666;23.350;2023-06-22T02:13:06;13.05;;;11.38;;
55423;SDS011;41294;42.666;23.350;2023-06-22T02:15:33;13.65;;;11.20;;
55423;SDS011;41294;42.666;23.350;2023-06-22T02:17:59;12.13;;;10.98;;
55423;SDS011;41294;42.666;23.350;2023-06-22T02:20:25;12.63;;;11.43;;
55423;SDS011;41294;42.666;23.350;2023-06-22T02:22:50;13.20;;;11.88;;
55423;SDS011;41294;42.666;23.350;2023-06-22T02:25:16;12.40;;;11.20;;
55423;SDS011;41294;42.666;23.350;2023-06-22T02:27:41;13.25;;;11.88;;
55423;SDS011;41294;42.666;23.350;2023-06-22T02:30:08;12.02;;;11.02;;
55423;SDS011;41294;42.666;23.350;2023-06-22T02:32:34;11.55;;;10.55;;
55423;SDS011;41294;42.666;23.350;2023-06-22T02:35:00;16.95;;;10.77;;
55423;SDS011;41294;42.666;23.350;2023-06-22T02:37:29;11.93;;;10.98;;
55423;SDS011;41294;42.666;23.350;2023-06-22T02:39:54;13.55;;;10.50;;
55423;SDS011;41294;42.666;23.350;2023-06-22T02:42:20;11.30;;;10.30;;
55423;SDS011;41294;42.666;23.350;2023-06-22T02:44:46;11.88;;;10.68;;
55423;SDS011;41294;42.666;23.350;2023-06-22T02:47:12;12.57;;;11.30;;
55423;SDS011;41294;42.666;23.350;2023-06-22T02:49:37;12.82;;;11.50;;
55423;SDS011;41294;42.666;23.350;2023-06-22T02:52:03;13.18;;;11.77;;
55423;SDS011;41294;42.666;23.350;2023-06-22T02:54:29;14.25;;;11.02;;
55423;SDS011;41294;42.666;23.350;2023-06-22T02:56:54;13.35;;;11.40;;
55423;SDS011;41294;42.666;23.350;2023-06-22T02:59:20;12.63;;;11.43;;
55423;SDS011;41294;42.666;23.350;2023-06-22T03:01:48;13.32;;;11.82;;
55423;SDS011;41294;42.666;23.350;2023-06-22T03:04:15;12.45;;;11.23;;
55423;SDS011;41294;42.666;23.350;2023-06-22T03:06:41;13.68;;;10.95;;
55423;SDS011;41294;42.666;23.350;2023-06-22T03:09:06;11.25;;;10.18;;
55423;SDS011;41294;42.666;23.350;2023-06-22T03:11:32;11.38;;;10.20;;
55423;SDS011;41294;42.666;23.350;2023-06-22T03:13:58;12.23;;;10.95;;
55423;SDS011;41294;42.666;23.350;2023-06-22T03:16:24;12.65;;;11.55;;
55423;SDS011;41294;42.666;23.350;2023-06-22T03:18:50;11.85;;;10.77;;
55423;SDS011;41294;42.666;23.350;2023-06-22T03:21:15;12.85;;;11.50;;
55423;SDS011;41294;42.666;23.350;2023-06-22T03:23:42;12.35;;;10.95;;
55423;SDS011;41294;42.666;23.350;2023-06-22T03:26:08;12.80;;;11.55;;
55423;SDS011;41294;42.666;23.350;2023-06-22T03:28:35;12.55;;;11.25;;
55423;SDS011;41294;42.666;23.350;2023-06-22T03:31:00;12.15;;;10.95;;
55423;SDS011;41294;42.666;23.350;2023-06-22T03:33:26;13.10;;;11.82;;
55423;SDS011;41294;42.666;23.350;2023-06-22T03:35:51;12.25;;;11.05;;
55423;SDS011;41294;42.666;23.350;2023-06-22T03:38:17;12.68;;;11.43;;
55423;SDS011;41294;42.666;23.350;2023-06-22T03:40:42;13.57;;;11.13;;
55423;SDS011;41294;42.666;23.350;2023-06-22T03:43:08;17.30;;;12.30;;
55423;SDS011;41294;42.666;23.350;2023-06-22T03:45:33;13.93;;;11.73;;
55423;SDS011;41294;42.666;23.350;2023-06-22T03:48:00;15.25;;;10.65;;
55423;SDS011;41294;42.666;23.350;2023-06-22T03:50:26;12.02;;;10.93;;
55423;SDS011;41294;42.666;23.350;2023-06-22T03:52:52;11.63;;;10.50;;
55423;SDS011;41294;42.666;23.350;2023-06-22T03:55:19;14.55;;;10.95;;
55423;SDS011;41294;42.666;23.350;2023-06-22T03:57:45;11.93;;;10.68;;
55423;SDS011;41294;42.666;23.350;2023-06-22T04:00:10;15.73;;;10.70;;
55423;SDS011;41294;42.666;23.350;2023-06-22T04:02:36;14.85;;;10.48;;
55423;SDS011;41294;42.666;23.350;2023-06-22T04:05:02;12.32;;;10.05;;
55423;SDS011;41294;42.666;23.350;2023-06-22T04:07:27;12.68;;;10.05;;
55423;SDS011;41294;42.666;23.350;2023-06-22T04:09:53;15.38;;;11.88;;
55423;SDS011;41294;42.666;23.350;2023-06-22T04:12:18;12.82;;;10.52;;
55423;SDS011;41294;42.666;23.350;2023-06-22T04:14:44;11.20;;;10.00;;
55423;SDS011;41294;42.666;23.350;2023-06-22T04:17:09;14.52;;;10.73;;
55423;SDS011;41294;42.666;23.350;2023-06-22T04:19:34;12.68;;;10.82;;
55423;SDS011;41294;42.666;23.350;2023-06-22T04:22:00;11.90;;;10.70;;
55423;SDS011;41294;42.666;23.350;2023-06-22T04:24:25;13.45;;;11.70;;
55423;SDS011;41294;42.666;23.350;2023-06-22T04:26:51;12.45;;;10.80;;
55423;SDS011;41294;42.666;23.350;2023-06-22T04:29:19;11.88;;;10.77;;
55423;SDS011;41294;42.666;23.350;2023-06-22T04:31:46;13.18;;;11.88;;
55423;SDS011;41294;42.666;23.350;2023-06-22T04:34:16;14.35;;;12.63;;
55423;SDS011;41294;42.666;23.350;2023-06-22T04:36:42;13.18;;;11.82;;
55423;SDS011;41294;42.666;23.350;2023-06-22T04:39:09;14.10;;;11.73;;
55423;SDS011;41294;42.666;23.350;2023-06-22T04:41:36;13.60;;;12.23;;
55423;SDS011;41294;42.666;23.350;2023-06-22T04:44:12;15.15;;;12.80;;
55423;SDS011;41294;42.666;23.350;2023-06-22T04:46:38;16.08;;;13.50;;
55423;SDS011;41294;42.666;23.350;2023-06-22T04:49:05;14.82;;;13.32;;
55423;SDS011;41294;42.666;23.350;2023-06-22T04:51:34;15.25;;;12.68;;
55423;SDS011;41294;42.666;23.350;2023-06-22T04:54:05;12.80;;;11.70;;
55423;SDS011;41294;42.666;23.350;2023-06-22T04:56:31;13.57;;;12.18;;
55423;SDS011;41294;42.666;23.350;2023-06-22T04:58:57;12.52;;;11.43;;
55423;SDS011;41294;42.666;23.350;2023-06-22T05:01:23;12.75;;;11.55;;
55423;SDS011;41294;42.666;23.350;2023-06-22T05:03:49;12.32;;;11.13;;
55423;SDS011;41294;42.666;23.350;2023-06-22T05:06:15;12.73;;;11.43;;
55423;SDS011;41294;42.666;23.350;2023-06-22T05:08:40;13.25;;;11.60;;
55423;SDS011;41294;42.666;23.350;2023-06-22T05:11:06;13.63;;;10.40;;
55423;SDS011;41294;42.666;23.350;2023-06-22T05:13:31;12.85;;;11.05;;
55423;SDS011;41294;42.666;23.350;2023-06-22T05:15:57;13.93;;;12.50;;
55423;SDS011;41294;42.666;23.350;2023-06-22T05:18:30;13.52;;;12.32;;
55423;SDS011;41294;42.666;23.350;2023-06-22T05:20:55;12.80;;;11.50;;
55423;SDS011;41294;42.666;23.350;2023-06-22T05:23:21;12.43;;;11.13;;
55423;SDS011;41294;42.666;23.350;2023-06-22T05:25:46;12.93;;;11.65;;
55423;SDS011;41294;42.666;23.350;2023-06-22T05:28:12;12.18;;;10.65;;
55423;SDS011;41294;42.666;23.350;2023-06-22T05:30:37;13.65;;;11.70;;
55423;SDS011;41294;42.666;23.350;2023-06-22T05:33:03;12.32;;;10.93;;
55423;SDS011;41294;42.666;23.350;2023-06-22T05:35:28;12.52;;;11.27;;
55423;SDS011;41294;42.666;23.350;2023-06-22T05:37:54;12.48;;;11.05;;
55423;SDS011;41294;42.666;23.350;2023-06-22T05:40:20;12.85;;;10.32;;
55423;SDS011;41294;42.666;23.350;2023-06-22T05:42:46;13.25;;;10.68;;
55423;SDS011;41294;42.666;23.350;2023-06-22T05:45:11;12.18;;;10.90;;
55423;SDS011;41294;42.666;23.350;2023-06-22T05:47:36;11.68;;;10.48;;
55423;SDS011;41294;42.666;23.350;2023-06-22T05:50:02;12.20;;;10.93;;
55423;SDS011;41294;42.666;23.350;2023-06-22T05:52:31;14.77;;;10.27;;
55423;SDS011;41294;42.666;23.350;2023-06-22T05:54:57;11.73;;;10.60;;
55423;SDS011;41294;42.666;23.350;2023-06-22T05:57:23;11.10;;;9.98;;
55423;SDS011;41294;42.666;23.350;2023-06-22T05:59:48;12.27;;;11.10;;
55423;SDS011;41294;42.666;23.350;2023-06-22T06:02:13;13.18;;;11.77;;
55423;SDS011;41294;42.666;23.350;2023-06-22T06:04:39;12.75;;;11.23;;
55423;SDS011;41294;42.666;23.350;2023-06-22T06:07:04;14.25;;;11.45;;
55423;SDS011;41294;42.666;23.350;2023-06-22T06:09:30;11.40;;;9.82;;
55423;SDS011;41294;42.666;23.350;2023-06-22T06:11:55;13.95;;;10.50;;
55423;SDS011;41294;42.666;23.350;2023-06-22T06:14:21;12.80;;;11.70;;
55423;SDS011;41294;42.666;23.350;2023-06-22T06:16:46;11.77;;;10.77;;
55423;SDS011;41294;42.666;23.350;2023-06-22T06:19:13;12.75;;;11.60;;
55423;SDS011;41294;42.666;23.350;2023-06-22T06:21:38;13.95;;;12.65;;
55423;SDS011;41294;42.666;23.350;2023-06-22T06:24:04;13.02;;;11.70;;
55423;SDS011;41294;42.666;23.350;2023-06-22T06:26:29;12.15;;;10.95;;
55423;SDS011;41294;42.666;23.350;2023-06-22T06:28:57;13.52;;;10.70;;
55423;SDS011;41294;42.666;23.350;2023-06-22T06:31:24;12.70;;;10.30;;
55423;SDS011;41294;42.666;23.350;2023-06-22T06:33:49;11.98;;;10.07;;
55423;SDS011;41294;42.666;23.350;2023-06-22T06:36:16;10.55;;;9.43;;
55423;SDS011;41294;42.666;23.350;2023-06-22T06:38:42;10.80;;;9.70;;
55423;SDS011;41294;42.666;23.350;2023-06-22T06:41:07;10.02;;;9.10;;
55423;SDS011;41294;42.666;23.350;2023-06-22T06:43:32;12.15;;;8.90;;
55423;SDS011;41294;42.666;23.350;2023-06-22T06:45:58;10.15;;;8.85;;
55423;SDS011;41294;42.666;23.350;2023-06-22T06:48:23;10.68;;;9.35;;
55423;SDS011;41294;42.666;23.350;2023-06-22T06:50:49;11.10;;;9.73;;
55423;SDS011;41294;42.666;23.350;2023-06-22T06:53:15;10.82;;;9.80;;
55423;SDS011;41294;42.666;23.350;2023-06-22T06:55:40;12.70;;;9.98;;
55423;SDS011;41294;42.666;23.350;2023-06-22T06:58:05;11.27;;;9.55;;
55423;SDS011;41294;42.666;23.350;2023-06-22T07:00:33;10.45;;;9.02;;
55423;SDS011;41294;42.666;23.350;2023-06-22T07:03:00;9.45;;;8.50;;
55423;SDS011;41294;42.666;23.350;2023-06-22T07:05:26;10.93;;;9.85;;
55423;SDS011;41294;42.666;23.350;2023-06-22T07:07:51;11.32;;;10.10;;
55423;SDS011;41294;42.666;23.350;2023-06-22T07:10:18;11.68;;;9.93;;
55423;SDS011;41294;42.666;23.350;2023-06-22T07:12:43;12.23;;;10.50;;
55423;SDS011;41294;42.666;23.350;2023-06-22T07:15:09;11.40;;;10.25;;
55423;SDS011;41294;42.666;23.350;2023-06-22T07:17:37;11.50;;;10.10;;
55423;SDS011;41294;42.666;23.350;2023-06-22T07:20:06;10.40;;;9.40;;
55423;SDS011;41294;42.666;23.350;2023-06-22T07:22:37;11.48;;;10.40;;
55423;SDS011;41294;42.666;23.350;2023-06-22T07:25:03;14.70;;;9.98;;
55423;SDS011;41294;42.666;23.350;2023-06-22T07:27:34;12.88;;;10.40;;
55423;SDS011;41294;42.666;23.350;2023-06-22T07:30:02;12.85;;;10.40;;
55423;SDS011;41294;42.666;23.350;2023-06-22T07:32:28;10.32;;;9.13;;
55423;SDS011;41294;42.666;23.350;2023-06-22T07:34:54;12.27;;;10.55;;
55423;SDS011;41294;42.666;23.350;2023-06-22T07:37:19;15.02;;;10.70;;
55423;SDS011;41294;42.666;23.350;2023-06-22T07:39:45;11.43;;;10.23;;
55423;SDS011;41294;42.666;23.350;2023-06-22T07:42:10;11.02;;;9.60;;
55423;SDS011;41294;42.666;23.350;2023-06-22T07:44:35;11.35;;;10.02;;
55423;SDS011;41294;42.666;23.350;2023-06-22T07:47:01;13.25;;;9.57;;
55423;SDS011;41294;42.666;23.350;2023-06-22T07:49:27;12.27;;;9.80;;
55423;SDS011;41294;42.666;23.350;2023-06-22T07:51:53;12.50;;;10.10;;
55423;SDS011;41294;42.666;23.350;2023-06-22T07:54:18;11.50;;;9.27;;
55423;SDS011;41294;42.666;23.350;2023-06-22T07:56:44;10.63;;;9.52;;
55423;SDS011;41294;42.666;23.350;2023-06-22T07:59:11;12.05;;;9.15;;
55423;SDS011;41294;42.666;23.350;2023-06-22T08:01:36;10.73;;;9.70;;
55423;SDS011;41294;42.666;23.350;2023-06-22T08:04:02;11.38;;;9.85;;
55423;SDS011;41294;42.666;23.350;2023-06-22T08:06:29;10.23;;;9.15;;
55423;SDS011;41294;42.666;23.350;2023-06-22T08:08:55;14.07;;;9.45;;
55423;SDS011;41294;42.666;23.350;2023-06-22T08:11:22;9.60;;;8.68;;
55423;SDS011;41294;42.666;23.350;2023-06-22T08:13:48;10.75;;;9.75;;
55423;SDS011;41294;42.666;23.350;2023-06-22T08:16:16;10.55;;;9.65;;
55423;SDS011;41294;42.666;23.350;2023-06-22T08:18:41;11.85;;;10.70;;
55423;SDS011;41294;42.666;23.350;2023-06-22T08:21:08;11.73;;;10.55;;
55423;SDS011;41294;42.666;23.350;2023-06-22T08:23:33;13.80;;;9.27;;
55423;SDS011;41294;42.666;23.350;2023-06-22T08:26:00;11.27;;;10.25;;
55423;SDS011;41294;42.666;23.350;2023-06-22T08:28:25;11.10;;;9.95;;
55423;SDS011;41294;42.666;23.350;2023-06-22T08:30:50;15.88;;;10.43;;
55423;SDS011;41294;42.666;23.350;2023-06-22T08:33:16;10.63;;;9.68;;
55423;SDS011;41294;42.666;23.350;2023-06-22T08:35:41;12.88;;;10.07;;
55423;SDS011;41294;42.666;23.350;2023-06-22T08:38:07;11.35;;;9.82;;
55423;SDS011;41294;42.666;23.350;2023-06-22T08:40:33;11.75;;;9.43;;
55423;SDS011;41294;42.666;23.350;2023-06-22T08:42:59;11.38;;;9.20;;
55423;SDS011;41294;42.666;23.350;2023-06-22T08:45:24;13.85;;;9.02;;
55423;SDS011;41294;42.666;23.350;2023-06-22T08:47:50;10.77;;;9.60;;
55423;SDS011;41294;42.666;23.350;2023-06-22T08:50:15;9.88;;;8.80;;
55423;SDS011;41294;42.666;23.350;2023-06-22T08:52:40;10.32;;;9.13;;
55423;SDS011;41294;42.666;23.350;2023-06-22T08:55:06;12.85;;;10.00;;
55423;SDS011;41294;42.666;23.350;2023-06-22T08:57:33;10.23;;;8.88;;
55423;SDS011;41294;42.666;23.350;2023-06-22T08:59:59;8.80;;;7.90;;
55423;SDS011;41294;42.666;23.350;2023-06-22T09:02:27;8.93;;;8.02;;
55423;SDS011;41294;42.666;23.350;2023-06-22T09:04:56;8.90;;;8.20;;
55423;SDS011;41294;42.666;23.350;2023-06-22T09:07:22;9.95;;;8.88;;
55423;SDS011;41294;42.666;23.350;2023-06-22T09:09:49;9.57;;;8.50;;
55423;SDS011;41294;42.666;23.350;2023-06-22T09:12:16;9.32;;;8.40;;
55423;SDS011;41294;42.666;23.350;2023-06-22T09:14:41;8.65;;;7.82;;
55423;SDS011;41294;42.666;23.350;2023-06-22T09:17:07;15.15;;;8.00;;
55423;SDS011;41294;42.666;23.350;2023-06-22T09:19:32;9.52;;;8.32;;
55423;SDS011;41294;42.666;23.350;2023-06-22T09:21:58;9.63;;;7.82;;
55423;SDS011;41294;42.666;23.350;2023-06-22T09:24:24;8.73;;;7.93;;
55423;SDS011;41294;42.666;23.350;2023-06-22T09:26:49;8.52;;;7.55;;
55423;SDS011;41294;42.666;23.350;2023-06-22T09:29:15;7.68;;;6.97;;
55423;SDS011;41294;42.666;23.350;2023-06-22T09:31:41;7.65;;;7.00;;
55423;SDS011;41294;42.666;23.350;2023-06-22T09:34:06;8.05;;;7.35;;
55423;SDS011;41294;42.666;23.350;2023-06-22T09:36:31;7.70;;;6.70;;
55423;SDS011;41294;42.666;23.350;2023-06-22T09:38:57;8.55;;;7.75;;
55423;SDS011;41294;42.666;23.350;2023-06-22T09:41:24;15.82;;;8.90;;
55423;SDS011;41294;42.666;23.350;2023-06-22T09:43:49;10.10;;;8.85;;
55423;SDS011;41294;42.666;23.350;2023-06-22T09:46:15;9.18;;;8.38;;
55423;SDS011;41294;42.666;23.350;2023-06-22T09:48:41;8.60;;;7.70;;
55423;SDS011;41294;42.666;23.350;2023-06-22T09:51:09;9.57;;;8.10;;
55423;SDS011;41294;42.666;23.350;2023-06-22T09:53:35;10.15;;;8.60;;
55423;SDS011;41294;42.666;23.350;2023-06-22T09:56:03;10.40;;;9.32;;
55423;SDS011;41294;42.666;23.350;2023-06-22T09:58:29;9.50;;;8.70;;
55423;SDS011;41294;42.666;23.350;2023-06-22T10:00:54;9.90;;;9.00;;
55423;SDS011;41294;42.666;23.350;2023-06-22T10:03:20;12.43;;;9.73;;
55423;SDS011;41294;42.666;23.350;2023-06-22T10:05:46;10.68;;;9.68;;
55423;SDS011;41294;42.666;23.350;2023-06-22T10:08:11;9.88;;;8.90;;
55423;SDS011;41294;42.666;23.350;2023-06-22T10:10:37;10.73;;;9.38;;
55423;SDS011;41294;42.666;23.350;2023-06-22T10:13:03;9.63;;;8.73;;
55423;SDS011;41294;42.666;23.350;2023-06-22T10:15:35;10.20;;;9.18;;
55423;SDS011;41294;42.666;23.350;2023-06-22T10:18:01;9.85;;;8.82;;
55423;SDS011;41294;42.666;23.350;2023-06-22T10:20:27;10.25;;;9.27;;
55423;SDS011;41294;42.666;23.350;2023-06-22T10:22:53;9.80;;;8.93;;
55423;SDS011;41294;42.666;23.350;2023-06-22T10:25:19;9.32;;;8.52;;
55423;SDS011;41294;42.666;23.350;2023-06-22T10:27:44;9.55;;;8.63;;
55423;SDS011;41294;42.666;23.350;2023-06-22T10:30:10;9.57;;;8.38;;
55423;SDS011;41294;42.666;23.350;2023-06-22T10:32:40;9.93;;;9.13;;
55423;SDS011;41294;42.666;23.350;2023-06-22T10:35:07;10.27;;;9.43;;
55423;SDS011;41294;42.666;23.350;2023-06-22T10:37:35;9.77;;;8.98;;
55423;SDS011;41294;42.666;23.350;2023-06-22T10:40:00;9.43;;;8.60;;
55423;SDS011;41294;42.666;23.350;2023-06-22T10:42:26;10.65;;;9.52;;
55423;SDS011;41294;42.666;23.350;2023-06-22T10:44:51;9.90;;;8.88;;
55423;SDS011;41294;42.666;23.350;2023-06-22T10:47:17;9.00;;;8.20;;
55423;SDS011;41294;42.666;23.350;2023-06-22T10:49:42;9.13;;;8.25;;
55423;SDS011;41294;42.666;23.350;2023-06-22T10:52:08;17.95;;;8.90;;
55423;SDS011;41294;42.666;23.350;2023-06-22T10:57:18;7.95;;;7.25;;
55423;SDS011;41294;42.666;23.350;2023-06-22T10:59:43;8.75;;;7.95;;
55423;SDS011;41294;42.666;23.350;2023-06-22T11:02:09;8.55;;;7.78;;
55423;SDS011;41294;42.666;23.350;2023-06-22T11:04:35;8.60;;;7.90;;
55423;SDS011;41294;42.666;23.350;2023-06-22T11:07:00;13.18;;;8.30;;
55423;SDS011;41294;42.666;23.350;2023-06-22T11:09:26;9.45;;;8.40;;
55423;SDS011;41294;42.666;23.350;2023-06-22T11:11:52;9.00;;;8.10;;
55423;SDS011;41294;42.666;23.350;2023-06-22T11:14:21;8.57;;;7.88;;
55423;SDS011;41294;42.666;23.350;2023-06-22T11:16:47;8.30;;;7.60;;
55423;SDS011;41294;42.666;23.350;2023-06-22T11:19:13;9.02;;;8.13;;
55423;SDS011;41294;42.666;23.350;2023-06-22T11:21:39;8.43;;;7.75;;
55423;SDS011;41294;42.666;23.350;2023-06-22T11:24:05;8.48;;;7.78;;
55423;SDS011;41294;42.666;23.350;2023-06-22T11:26:30;8.43;;;7.72;;
55423;SDS011;41294;42.666;23.350;2023-06-22T11:29:03;8.70;;;7.90;;
55423;SDS011;41294;42.666;23.350;2023-06-22T11:31:31;8.93;;;8.02;;
55423;SDS011;41294;42.666;23.350;2023-06-22T11:33:57;8.90;;;8.20;;
55423;SDS011;41294;42.666;23.350;2023-06-22T11:36:22;9.32;;;8.57;;
55423;SDS011;41294;42.666;23.350;2023-06-22T11:38:48;8.30;;;7.63;;
55423;SDS011;41294;42.666;23.350;2023-06-22T11:41:13;8.60;;;7.90;;
55423;SDS011;41294;42.666;23.350;2023-06-22T11:43:39;8.60;;;7.60;;
55423;SDS011;41294;42.666;23.350;2023-06-22T11:46:04;8.93;;;8.18;;
55423;SDS011;41294;42.666;23.350;2023-06-22T11:48:30;8.55;;;7.85;;
55423;SDS011;41294;42.666;23.350;2023-06-22T11:50:55;8.38;;;7.68;;
55423;SDS011;41294;42.666;23.350;2023-06-22T11:53:22;7.55;;;7.03;;
55423;SDS011;41294;42.666;23.350;2023-06-22T11:55:49;8.10;;;7.50;;
55423;SDS011;41294;42.666;23.350;2023-06-22T11:58:15;7.43;;;6.90;;
55423;SDS011;41294;42.666;23.350;2023-06-22T12:00:40;8.20;;;7.50;;
55423;SDS011;41294;42.666;23.350;2023-06-22T12:03:07;9.60;;;8.80;;
55423;SDS011;41294;42.666;23.350;2023-06-22T12:05:34;8.27;;;7.47;;
55423;SDS011;41294;42.666;23.350;2023-06-22T12:07:59;8.93;;;7.63;;
55423;SDS011;41294;42.666;23.350;2023-06-22T12:10:25;8.40;;;7.63;;
55423;SDS011;41294;42.666;23.350;2023-06-22T12:12:53;8.00;;;7.30;;
55423;SDS011;41294;42.666;23.350;2023-06-22T12:15:18;10.55;;;9.65;;
55423;SDS011;41294;42.666;23.350;2023-06-22T12:17:44;7.90;;;7.18;;
55423;SDS011;41294;42.666;23.350;2023-06-22T12:20:09;9.95;;;8.20;;
55423;SDS011;41294;42.666;23.350;2023-06-22T12:22:35;9.35;;;8.25;;
55423;SDS011;41294;42.666;23.350;2023-06-22T12:25:03;9.18;;;8.40;;
55423;SDS011;41294;42.666;23.350;2023-06-22T12:27:29;11.40;;;7.97;;
55423;SDS011;41294;42.666;23.350;2023-06-22T12:29:55;8.05;;;7.43;;
55423;SDS011;41294;42.666;23.350;2023-06-22T12:32:21;8.80;;;8.10;;
55423;SDS011;41294;42.666;23.350;2023-06-22T12:34:47;8.77;;;7.88;;
55423;SDS011;41294;42.666;23.350;2023-06-22T12:37:12;13.25;;;9.80;;
55423;SDS011;41294;42.666;23.350;2023-06-22T12:39:40;10.02;;;7.70;;
55423;SDS011;41294;42.666;23.350;2023-06-22T12:42:05;11.65;;;10.40;;
55423;SDS011;41294;42.666;23.350;2023-06-22T12:44:33;9.40;;;8.52;;
55423;SDS011;41294;42.666;23.350;2023-06-22T12:46:59;9.98;;;8.57;;
55423;SDS011;41294;42.666;23.350;2023-06-22T12:49:24;8.95;;;7.88;;
55423;SDS011;41294;42.666;23.350;2023-06-22T12:51:50;9.15;;;8.27;;
55423;SDS011;41294;42.666;23.350;2023-06-22T12:54:15;9.23;;;8.18;;
55423;SDS011;41294;42.666;23.350;2023-06-22T12:56:41;9.00;;;8.20;;
55423;SDS011;41294;42.666;23.350;2023-06-22T12:59:08;8.90;;;8.02;;
55423;SDS011;41294;42.666;23.350;2023-06-22T13:01:34;9.38;;;8.48;;
55423;SDS011;41294;42.666;23.350;2023-06-22T13:03:59;11.65;;;9.48;;
55423;SDS011;41294;42.666;23.350;2023-06-22T13:06:25;11.48;;;8.57;;
55423;SDS011;41294;42.666;23.350;2023-06-22T13:08:51;16.02;;;10.05;;
55423;SDS011;41294;42.666;23.350;2023-06-22T13:11:16;9.88;;;8.85;;
55423;SDS011;41294;42.666;23.350;2023-06-22T13:13:43;13.93;;;12.45;;
55423;SDS011;41294;42.666;23.350;2023-06-22T13:16:09;10.43;;;9.32;;
55423;SDS011;41294;42.666;23.350;2023-06-22T13:18:35;12.30;;;9.75;;
55423;SDS011;41294;42.666;23.350;2023-06-22T13:21:02;12.20;;;9.85;;
55423;SDS011;41294;42.666;23.350;2023-06-22T13:23:28;11.52;;;10.25;;
55423;SDS011;41294;42.666;23.350;2023-06-22T13:25:53;11.45;;;10.32;;
55423;SDS011;41294;42.666;23.350;2023-06-22T13:28:19;11.05;;;10.00;;
55423;SDS011;41294;42.666;23.350;2023-06-22T13:30:45;12.95;;;11.40;;
55423;SDS011;41294;42.666;23.350;2023-06-22T13:33:15;12.93;;;11.40;;
55423;SDS011;41294;42.666;23.350;2023-06-22T13:35:41;14.65;;;12.77;;
55423;SDS011;41294;42.666;23.350;2023-06-22T13:38:10;13.48;;;12.07;;
55423;SDS011;41294;42.666;23.350;2023-06-22T13:40:35;15.00;;;12.25;;
55423;SDS011;41294;42.666;23.350;2023-06-22T13:43:03;11.82;;;10.25;;
55423;SDS011;41294;42.666;23.350;2023-06-22T13:45:29;14.00;;;11.13;;
55423;SDS011;41294;42.666;23.350;2023-06-22T13:47:55;12.73;;;11.48;;
55423;SDS011;41294;42.666;23.350;2023-06-22T13:50:20;17.92;;;15.35;;
55423;SDS011;41294;42.666;23.350;2023-06-22T13:52:45;13.07;;;11.88;;
55423;SDS011;41294;42.666;23.350;2023-06-22T13:55:11;13.63;;;12.30;;
55423;SDS011;41294;42.666;23.350;2023-06-22T13:57:36;12.82;;;11.55;;
55423;SDS011;41294;42.666;23.350;2023-06-22T14:00:03;12.13;;;10.93;;
55423;SDS011;41294;42.666;23.350;2023-06-22T14:02:30;12.48;;;11.35;;
55423;SDS011;41294;42.666;23.350;2023-06-22T14:04:55;11.50;;;10.35;;
55423;SDS011;41294;42.666;23.350;2023-06-22T14:07:21;14.45;;;10.82;;
55423;SDS011;41294;42.666;23.350;2023-06-22T14:09:46;12.82;;;10.05;;
55423;SDS011;41294;42.666;23.350;2023-06-22T14:12:12;13.63;;;10.63;;
55423;SDS011;41294;42.666;23.350;2023-06-22T14:14:37;12.30;;;10.88;;
55423;SDS011;41294;42.666;23.350;2023-06-22T14:17:03;11.32;;;9.95;;
55423;SDS011;41294;42.666;23.350;2023-06-22T14:19:29;10.82;;;9.70;;
55423;SDS011;41294;42.666;23.350;2023-06-22T14:21:55;10.77;;;9.68;;
55423;SDS011;41294;42.666;23.350;2023-06-22T14:24:22;10.70;;;9.55;;